Time;durP1;ratioP1;P1;durP2;ratioP2;P2;SDS_P1;SDS_P2;PMS_P1;PMS_P2;Temp;Humidity;BMP_temperature;BMP_pressure;BME280_temperature;BME280_humidity;BME280_pressure;Samples;Min_cycle;Max_cycle;Signal;HPM_P1;HPM_P2
2023/02/10 00:00:05;;;;;;;55.10;24.23;;;-3.70;99.90;;;;;;5024756;28;20225;-62
2023/02/10 00:02:31;;;;;;;53.67;23.63;;;-3.70;99.90;;;;;;5023152;28;20214;-64
2023/02/10 00:04:56;;;;;;;50.67;23.73;;;-3.70;99.90;;;;;;5023809;28;20461;-61
2023/02/10 00:07:22;;;;;;;56.87;23.70;;;-3.70;99.90;;;;;;5037105;28;20763;-61
2023/02/10 00:09:50;;;;;;;53.87;23.27;;;-3.70;99.90;;;;;;5026690;28;20211;-63
2023/02/10 00:12:16;;;;;;;47.37;23.10;;;-3.70;99.90;;;;;;5026234;28;20671;-61
2023/02/10 00:14:42;;;;;;;50.47;22.57;;;-3.80;99.90;;;;;;5042384;28;20423;-61
2023/02/10 00:17:08;;;;;;;52.83;23.87;;;-3.80;99.90;;;;;;5068243;22;20223;-58
2023/02/10 00:19:34;;;;;;;59.67;24.80;;;-3.80;99.90;;;;;;5042361;28;20526;-59
2023/02/10 00:22:01;;;;;;;50.77;22.17;;;-3.80;99.90;;;;;;5040742;28;20449;-59
2023/02/10 00:24:27;;;;;;;53.30;22.57;;;-3.80;99.90;;;;;;5041023;28;20490;-59
2023/02/10 00:26:53;;;;;;;52.10;22.67;;;-3.80;99.90;;;;;;5030729;28;20972;-59
2023/02/10 00:29:19;;;;;;;52.87;23.97;;;-3.90;99.90;;;;;;5022668;28;20459;-59
2023/02/10 00:31:45;;;;;;;44.93;22.37;;;-3.90;99.90;;;;;;5022275;28;20242;-59
2023/02/10 00:34:13;;;;;;;56.30;20.77;;;-3.90;99.90;;;;;;5025684;28;20173;-60
2023/02/10 00:36:38;;;;;;;53.17;22.53;;;-3.90;99.90;;;;;;5024807;28;20457;-58
2023/02/10 00:39:04;;;;;;;49.50;23.43;;;-3.90;99.90;;;;;;5026010;28;20817;-58
2023/02/10 00:41:30;;;;;;;50.70;23.00;;;-4.00;99.90;;;;;;5020003;28;20173;-60
2023/02/10 00:43:56;;;;;;;50.27;22.07;;;-4.00;99.90;;;;;;5024232;28;20181;-57
2023/02/10 00:46:22;;;;;;;44.43;21.00;;;-4.00;99.90;;;;;;5026038;28;20190;-58
2023/02/10 00:48:48;;;;;;;44.90;20.73;;;-4.00;99.90;;;;;;5025653;28;20179;-58
2023/02/10 00:51:15;;;;;;;49.67;20.10;;;-3.90;99.90;;;;;;5024662;28;20468;-58
2023/02/10 00:53:41;;;;;;;35.57;17.27;;;-4.00;99.90;;;;;;5022394;28;20516;-58
2023/02/10 00:56:07;;;;;;;39.67;19.57;;;-4.00;99.90;;;;;;5027320;28;20470;-58
2023/02/10 00:58:33;;;;;;;46.07;20.77;;;-4.00;99.90;;;;;;5024668;28;20519;-58
2023/02/10 01:00:58;;;;;;;45.67;20.60;;;-4.00;99.90;;;;;;5021123;28;20525;-58
2023/02/10 01:03:24;;;;;;;47.90;19.93;;;-4.00;99.90;;;;;;5027339;28;20177;-58
2023/02/10 01:05:50;;;;;;;36.23;18.57;;;-4.00;99.90;;;;;;5025826;28;20210;-58
2023/02/10 01:08:16;;;;;;;46.63;20.50;;;-4.10;99.90;;;;;;5026651;28;20475;-58
2023/02/10 01:10:42;;;;;;;52.57;20.67;;;-4.10;99.90;;;;;;5022884;28;20219;-58
2023/02/10 01:13:10;;;;;;;48.57;20.47;;;-4.10;99.90;;;;;;5027897;28;20736;-58
2023/02/10 01:15:40;;;;;;;36.27;17.57;;;-4.10;99.90;;;;;;5024819;28;20467;-58
2023/02/10 01:18:06;;;;;;;40.10;19.87;;;-4.10;99.90;;;;;;5024533;28;20428;-57
2023/02/10 01:20:31;;;;;;;39.10;18.60;;;-4.10;99.90;;;;;;5006102;28;20442;-58
2023/02/10 01:22:57;;;;;;;47.83;20.90;;;-4.10;99.90;;;;;;5026324;28;20180;-58
2023/02/10 01:25:22;;;;;;;45.40;20.67;;;-4.20;99.90;;;;;;5024172;28;20202;-58
2023/02/10 01:27:48;;;;;;;44.77;19.00;;;-4.20;99.90;;;;;;5023986;28;20268;-59
2023/02/10 01:30:13;;;;;;;37.93;18.70;;;-4.20;99.90;;;;;;5021268;28;20249;-59
2023/02/10 01:32:39;;;;;;;49.10;20.10;;;-4.20;99.90;;;;;;5018933;28;20211;-58
2023/02/10 01:35:05;;;;;;;48.50;20.47;;;-4.30;99.90;;;;;;5017750;28;20182;-58
2023/02/10 01:37:30;;;;;;;46.33;21.33;;;-4.30;99.90;;;;;;5018395;28;20253;-58
2023/02/10 01:39:56;;;;;;;40.37;18.73;;;-4.30;99.90;;;;;;5023245;28;20460;-58
2023/02/10 01:42:21;;;;;;;39.70;20.87;;;-4.40;99.90;;;;;;5023617;28;20217;-60
2023/02/10 01:44:47;;;;;;;49.30;20.33;;;-4.40;99.90;;;;;;5027832;28;20648;-59
2023/02/10 01:47:14;;;;;;;45.63;20.10;;;-4.40;99.90;;;;;;5028525;28;20204;-59
2023/02/10 01:49:44;;;;;;;42.37;19.90;;;-4.40;99.90;;;;;;5030397;28;20243;-58
2023/02/10 01:52:22;;;;;;;40.80;19.07;;;-4.50;99.90;;;;;;5030186;28;20444;-58
2023/02/10 01:54:55;;;;;;;46.47;20.47;;;-4.50;99.90;;;;;;5024946;28;20438;-58
2023/02/10 01:57:21;;;;;;;44.43;19.57;;;-4.50;99.90;;;;;;5027998;28;20946;-58
2023/02/10 01:59:48;;;;;;;47.17;20.77;;;-4.50;99.90;;;;;;5028620;28;20440;-58
2023/02/10 02:02:15;;;;;;;45.90;19.10;;;-4.50;99.90;;;;;;5025178;28;20443;-58
2023/02/10 02:04:48;;;;;;;40.10;19.47;;;-4.60;99.90;;;;;;5027635;28;20508;-58
2023/02/10 02:07:14;;;;;;;46.70;20.50;;;-4.60;99.90;;;;;;5027561;28;20465;-58
2023/02/10 02:09:40;;;;;;;44.83;19.73;;;-4.60;99.90;;;;;;5028172;28;20975;-58
2023/02/10 02:12:13;;;;;;;47.10;19.80;;;-4.60;99.90;;;;;;5024115;28;20457;-58
2023/02/10 02:14:43;;;;;;;48.83;20.10;;;-4.60;99.90;;;;;;5026914;28;20426;-58
2023/02/10 02:17:28;;;;;;;49.70;19.90;;;-4.60;99.90;;;;;;5028491;28;20485;-58
2023/02/10 02:20:41;;;;;;;47.37;19.83;;;-4.70;99.90;;;;;;5026441;28;20474;-56
2023/02/10 02:23:18;;;;;;;40.63;19.57;;;-4.70;99.90;;;;;;5025253;28;20440;-59
2023/02/10 02:26:30;;;;;;;51.80;20.80;;;-4.70;99.90;;;;;;5026755;28;20963;-59
2023/02/10 02:28:56;;;;;;;43.70;18.50;;;-4.70;99.90;;;;;;5023756;28;21219;-59
2023/02/10 02:32:06;;;;;;;40.63;18.73;;;-4.80;99.90;;;;;;5023123;28;20476;-58
2023/02/10 02:34:52;;;;;;;40.50;19.47;;;-4.80;99.90;;;;;;4948886;29;20278;-59
2023/02/10 02:37:23;;;;;;;44.80;21.37;;;-4.80;99.90;;;;;;4944773;28;20469;-59
2023/02/10 02:39:51;;;;;;;43.07;18.30;;;-4.80;99.90;;;;;;4991819;28;20444;-57
2023/02/10 02:42:25;;;;;;;37.10;17.60;;;-4.80;99.90;;;;;;5022330;28;20433;-58
2023/02/10 02:44:55;;;;;;;42.97;20.43;;;-4.90;99.90;;;;;;5018990;28;20425;-58
2023/02/10 02:47:31;;;;;;;45.60;19.80;;;-4.80;99.90;;;;;;5017409;28;20859;-58
2023/02/10 02:50:12;;;;;;;51.60;20.63;;;-4.90;99.90;;;;;;5018954;28;20988;-58
2023/02/10 02:53:06;;;;;;;57.07;22.50;;;-4.90;99.90;;;;;;5018015;28;20452;-59
2023/02/10 02:55:50;;;;;;;41.23;19.40;;;-4.90;99.90;;;;;;5017251;28;20439;-59
2023/02/10 02:58:20;;;;;;;49.80;20.30;;;-4.90;99.90;;;;;;5018953;28;20432;-59
2023/02/10 03:00:48;;;;;;;50.90;22.40;;;-4.90;99.90;;;;;;5017251;28;20559;-57
2023/02/10 03:03:15;;;;;;;46.93;20.00;;;-4.90;99.90;;;;;;5022265;28;20563;-58
2023/02/10 03:05:40;;;;;;;50.70;22.07;;;-4.90;99.90;;;;;;5018560;28;22090;-59
2023/02/10 03:08:06;;;;;;;44.40;21.37;;;-4.90;99.90;;;;;;5019526;28;20427;-58
2023/02/10 03:10:32;;;;;;;54.97;23.57;;;-4.90;99.90;;;;;;5015176;28;20281;-58
2023/02/10 03:12:57;;;;;;;58.13;21.33;;;-5.00;99.90;;;;;;5012318;28;20182;-58
2023/02/10 03:15:23;;;;;;;41.63;18.77;;;-5.00;99.90;;;;;;5016148;28;20400;-58
2023/02/10 03:17:50;;;;;;;44.33;18.93;;;-5.00;99.90;;;;;;5003100;28;20216;-59
2023/02/10 03:20:15;;;;;;;45.33;20.07;;;-5.00;99.90;;;;;;5016239;28;20198;-59
2023/02/10 03:22:42;;;;;;;44.03;19.77;;;-5.00;99.90;;;;;;5019381;28;21029;-58
2023/02/10 03:25:08;;;;;;;43.80;20.17;;;-5.10;99.90;;;;;;5020139;28;20428;-58
2023/02/10 03:27:33;;;;;;;49.37;18.70;;;-5.10;99.90;;;;;;5016040;28;21039;-58
2023/02/10 03:29:59;;;;;;;44.70;19.57;;;-5.20;99.90;;;;;;5016356;28;20220;-58
2023/02/10 03:32:25;;;;;;;48.13;19.57;;;-5.20;99.90;;;;;;5018383;28;20188;-58
2023/02/10 03:34:50;;;;;;;44.97;19.90;;;-5.20;99.90;;;;;;5016748;28;20182;-58
2023/02/10 03:37:16;;;;;;;42.60;18.60;;;-5.20;99.90;;;;;;5022876;28;20197;-58
2023/02/10 03:39:41;;;;;;;44.20;20.27;;;-5.30;99.90;;;;;;5022079;28;20186;-60
2023/02/10 03:42:07;;;;;;;41.03;18.43;;;-5.30;99.90;;;;;;5020441;28;20190;-58
2023/02/10 03:44:33;;;;;;;48.13;20.33;;;-5.30;99.90;;;;;;5021380;28;20186;-60
2023/02/10 03:46:58;;;;;;;39.50;17.80;;;-5.20;99.90;;;;;;5022632;28;20220;-58
2023/02/10 03:49:24;;;;;;;52.30;20.53;;;-5.20;99.90;;;;;;5016076;28;20212;-58
2023/02/10 03:51:49;;;;;;;45.40;19.90;;;-5.20;99.90;;;;;;5017678;28;20189;-60
2023/02/10 03:54:15;;;;;;;52.97;19.97;;;-5.20;99.90;;;;;;5019209;28;20319;-59
2023/02/10 03:56:41;;;;;;;43.90;19.20;;;-5.20;99.90;;;;;;5015428;28;20209;-59
2023/02/10 03:59:06;;;;;;;48.33;20.10;;;-5.30;99.90;;;;;;4999827;28;20224;-57
2023/02/10 04:01:33;;;;;;;44.93;18.67;;;-5.30;99.90;;;;;;5016928;28;20643;-58
2023/02/10 04:03:59;;;;;;;47.40;21.03;;;-5.30;99.90;;;;;;5018791;28;20188;-61
2023/02/10 04:06:25;;;;;;;46.50;21.87;;;-5.30;99.90;;;;;;5018998;28;20483;-60
2023/02/10 04:08:51;;;;;;;53.93;19.20;;;-5.30;99.90;;;;;;5022316;28;20437;-59
2023/02/10 04:11:17;;;;;;;44.07;18.87;;;-5.30;99.90;;;;;;5021131;28;20540;-60
2023/02/10 04:13:42;;;;;;;43.43;18.80;;;-5.30;99.90;;;;;;5022900;28;20188;-58
2023/02/10 04:16:16;;;;;;;42.40;19.57;;;-5.30;99.90;;;;;;5021948;28;20223;-60
2023/02/10 04:18:42;;;;;;;43.90;19.90;;;-5.30;99.90;;;;;;5027400;28;20198;-59
2023/02/10 04:21:10;;;;;;;43.07;18.90;;;-5.30;99.90;;;;;;5026358;28;20498;-59
2023/02/10 04:23:36;;;;;;;40.00;17.60;;;-5.30;99.90;;;;;;5025877;28;20466;-60
2023/02/10 04:26:03;;;;;;;47.47;18.70;;;-5.40;99.90;;;;;;5026026;28;20969;-59
2023/02/10 04:28:28;;;;;;;42.80;20.40;;;-5.40;99.90;;;;;;5028876;28;20176;-60
2023/02/10 04:30:56;;;;;;;42.00;19.23;;;-5.40;99.90;;;;;;5025822;28;20582;-60
2023/02/10 04:33:24;;;;;;;42.77;16.70;;;-5.40;99.90;;;;;;5026412;28;20194;-60
2023/02/10 04:35:51;;;;;;;43.20;18.07;;;-5.50;99.80;;;;;;5026087;28;20451;-60
2023/02/10 04:38:17;;;;;;;41.33;18.63;;;-5.50;99.70;;;;;;5025471;28;20483;-60
2023/02/10 04:40:43;;;;;;;39.13;18.00;;;-5.50;99.30;;;;;;5025072;28;20659;-60
2023/02/10 04:43:12;;;;;;;49.30;20.77;;;-5.50;99.50;;;;;;5020685;28;20436;-60
2023/02/10 04:45:38;;;;;;;46.03;20.77;;;-5.60;99.50;;;;;;5025027;28;20961;-61
2023/02/10 04:48:03;;;;;;;43.10;19.73;;;-5.60;99.70;;;;;;5024242;28;20411;-60
2023/02/10 04:50:29;;;;;;;41.70;19.03;;;-5.60;99.90;;;;;;5023813;28;20200;-59
2023/02/10 04:52:55;;;;;;;45.50;20.90;;;-5.60;99.90;;;;;;5019081;28;20616;-58
2023/02/10 04:55:21;;;;;;;58.43;23.60;;;-5.60;99.90;;;;;;5014038;28;20891;-57
2023/02/10 04:57:46;;;;;;;43.83;20.53;;;-5.60;99.90;;;;;;5020445;28;20208;-59
2023/02/10 05:00:13;;;;;;;42.43;19.23;;;-5.60;99.90;;;;;;5017301;28;20189;-59
2023/02/10 05:02:38;;;;;;;44.43;17.80;;;-5.60;99.70;;;;;;5008865;28;20647;-59
2023/02/10 05:05:04;;;;;;;40.67;17.10;;;-5.60;99.30;;;;;;5017921;28;20445;-59
2023/02/10 05:07:31;;;;;;;45.60;18.33;;;-5.60;99.00;;;;;;5017101;28;20223;-60
2023/02/10 05:09:56;;;;;;;46.23;18.90;;;-5.60;98.90;;;;;;5012570;28;20468;-59
2023/02/10 05:12:22;;;;;;;39.03;17.40;;;-5.60;98.80;;;;;;5019294;28;20464;-59
2023/02/10 05:14:48;;;;;;;40.97;18.40;;;-5.60;98.90;;;;;;5016039;28;20455;-59
2023/02/10 05:17:13;;;;;;;45.13;18.40;;;-5.60;98.90;;;;;;5018207;28;20205;-54
2023/02/10 05:19:39;;;;;;;39.20;18.40;;;-5.60;99.40;;;;;;5013913;28;20707;-56
2023/02/10 05:22:04;;;;;;;44.70;18.07;;;-5.60;99.30;;;;;;5019519;28;20193;-56
2023/02/10 05:24:30;;;;;;;39.63;18.03;;;-5.60;98.70;;;;;;5010521;28;20196;-56
2023/02/10 05:26:55;;;;;;;42.93;18.80;;;-5.70;98.10;;;;;;5012350;28;20221;-56
2023/02/10 05:29:21;;;;;;;38.13;16.53;;;-5.70;97.50;;;;;;5023050;28;20284;-55
2023/02/10 05:31:47;;;;;;;44.40;19.20;;;-5.70;97.40;;;;;;5016614;28;20843;-54
2023/02/10 05:34:12;;;;;;;41.67;18.00;;;-5.80;96.90;;;;;;5020704;28;20180;-55
2023/02/10 05:36:38;;;;;;;44.67;19.40;;;-5.80;97.20;;;;;;5017101;28;20323;-56
2023/02/10 05:41:48;;;;;;;47.13;19.70;;;-5.80;97.40;;;;;;5017026;28;20277;-56
2023/02/10 05:44:14;;;;;;;43.67;19.50;;;-5.90;97.30;;;;;;5014897;28;20440;-55
2023/02/10 05:46:39;;;;;;;55.60;18.43;;;-5.90;97.50;;;;;;5021927;28;20290;-55
2023/02/10 05:49:05;;;;;;;50.07;21.30;;;-5.90;98.20;;;;;;5019282;28;20219;-57
2023/02/10 05:51:31;;;;;;;52.47;21.70;;;-5.90;98.80;;;;;;5012366;28;20869;-55
2023/02/10 05:53:56;;;;;;;43.23;19.60;;;-5.80;98.60;;;;;;5016544;28;20243;-57
2023/02/10 05:56:22;;;;;;;46.20;19.17;;;-5.90;97.90;;;;;;5017511;28;20193;-56
2023/02/10 05:58:47;;;;;;;48.30;20.00;;;-5.90;98.00;;;;;;5019292;28;20197;-57
2023/02/10 06:01:13;;;;;;;50.33;20.43;;;-5.90;97.70;;;;;;5019832;28;20292;-56
2023/02/10 06:03:39;;;;;;;46.23;18.93;;;-5.90;97.40;;;;;;5019356;28;20177;-56
2023/02/10 06:06:05;;;;;;;42.07;18.63;;;-5.90;97.30;;;;;;5024134;28;20205;-56
2023/02/10 06:08:30;;;;;;;42.83;19.77;;;-5.90;97.60;;;;;;5013765;28;20193;-56
2023/02/10 06:10:56;;;;;;;45.90;19.50;;;-5.90;97.80;;;;;;5012786;28;20445;-57
2023/02/10 06:13:21;;;;;;;47.57;20.13;;;-5.90;98.20;;;;;;5019910;28;20173;-57
2023/02/10 06:15:47;;;;;;;45.13;19.70;;;-5.90;98.00;;;;;;5024677;28;20240;-56
2023/02/10 06:18:13;;;;;;;48.77;19.30;;;-5.90;97.80;;;;;;5025690;28;20249;-57
2023/02/10 06:20:38;;;;;;;46.57;20.37;;;-5.90;97.30;;;;;;5022085;28;20268;-55
2023/02/10 06:23:04;;;;;;;52.13;20.53;;;-5.90;96.70;;;;;;5026630;28;20432;-54
2023/02/10 06:25:30;;;;;;;46.97;20.90;;;-5.90;96.60;;;;;;5026444;28;20671;-57
2023/02/10 06:27:55;;;;;;;48.63;20.70;;;-6.00;96.90;;;;;;5028558;28;20192;-55
2023/02/10 06:30:21;;;;;;;53.53;22.33;;;-6.00;97.30;;;;;;5028030;28;20204;-55
2023/02/10 06:32:46;;;;;;;52.77;22.47;;;-6.00;97.70;;;;;;5023528;28;20188;-55
2023/02/10 06:35:12;;;;;;;52.93;22.43;;;-6.00;98.00;;;;;;5050544;22;20220;-61
2023/02/10 06:37:38;;;;;;;48.90;21.73;;;-6.00;98.20;;;;;;5026998;28;20637;-60
2023/02/10 06:40:05;;;;;;;47.33;19.60;;;-6.00;97.90;;;;;;5024506;28;20412;-61
2023/02/10 06:42:31;;;;;;;44.30;19.60;;;-5.90;97.40;;;;;;5028432;28;20522;-61
2023/02/10 06:44:57;;;;;;;44.80;19.03;;;-5.90;97.40;;;;;;5032743;28;20539;-61
2023/02/10 06:47:23;;;;;;;44.40;19.07;;;-5.90;97.10;;;;;;5020244;28;20777;-61
2023/02/10 06:49:48;;;;;;;45.73;21.17;;;-5.90;97.20;;;;;;5029780;28;20228;-61
2023/02/10 06:52:14;;;;;;;48.93;19.67;;;-5.90;97.20;;;;;;5035353;28;20267;-60
2023/02/10 06:54:41;;;;;;;47.97;21.33;;;-5.90;97.20;;;;;;5023717;28;20217;-60
2023/02/10 06:57:06;;;;;;;43.80;21.13;;;-6.00;96.90;;;;;;5029113;28;20658;-61
2023/02/10 06:59:33;;;;;;;45.20;22.57;;;-6.00;96.70;;;;;;5029430;28;20471;-61
2023/02/10 07:02:01;;;;;;;56.50;22.70;;;-6.00;96.90;;;;;;5028928;28;20778;-61
2023/02/10 07:04:28;;;;;;;48.33;21.77;;;-6.00;97.10;;;;;;5029008;28;20530;-60
2023/02/10 07:06:54;;;;;;;46.10;19.63;;;-6.00;97.20;;;;;;5015729;28;20411;-61
2023/02/10 07:09:20;;;;;;;38.93;18.80;;;-6.00;97.50;;;;;;5025111;28;20414;-61
2023/02/10 07:11:45;;;;;;;41.53;21.10;;;-6.00;97.70;;;;;;5021869;28;20922;-60
2023/02/10 07:14:11;;;;;;;44.37;19.40;;;-6.00;98.10;;;;;;5030005;28;20199;-60
2023/02/10 07:16:36;;;;;;;44.17;18.13;;;-6.00;98.80;;;;;;5023433;28;20650;-59
2023/02/10 07:19:03;;;;;;;44.33;19.53;;;-5.90;98.20;;;;;;5030853;28;20181;-61
2023/02/10 07:21:28;;;;;;;45.97;20.00;;;-5.90;98.30;;;;;;5028776;28;20184;-59
2023/02/10 07:23:54;;;;;;;48.50;19.07;;;-5.90;99.20;;;;;;5032309;28;20437;-61
2023/02/10 07:26:20;;;;;;;47.80;20.93;;;-5.90;99.70;;;;;;5028213;28;20197;-59
2023/02/10 07:28:46;;;;;;;48.13;19.10;;;-5.90;99.60;;;;;;5015794;28;20189;-60
2023/02/10 07:31:11;;;;;;;47.43;19.67;;;-5.80;98.40;;;;;;5026486;28;20705;-59
2023/02/10 07:33:38;;;;;;;36.03;17.50;;;-5.80;98.60;;;;;;5021957;28;20466;-59
2023/02/10 07:36:04;;;;;;;44.63;19.40;;;-5.80;98.20;;;;;;5023144;28;20432;-60
2023/02/10 07:38:31;;;;;;;45.93;20.47;;;-5.80;98.50;;;;;;5023193;28;20173;-60
2023/02/10 07:40:57;;;;;;;48.77;19.97;;;-5.70;98.10;;;;;;5025226;28;20526;-61
2023/02/10 07:43:23;;;;;;;45.67;21.47;;;-5.70;97.70;;;;;;5019199;28;20444;-62
2023/02/10 07:45:50;;;;;;;49.87;20.43;;;-5.70;97.50;;;;;;5029823;28;20434;-59
2023/02/10 07:48:17;;;;;;;52.80;21.90;;;-5.60;96.90;;;;;;5027712;28;20185;-60
2023/02/10 07:50:43;;;;;;;47.40;23.93;;;-5.60;97.10;;;;;;5018441;28;20448;-60
2023/02/10 07:53:10;;;;;;;53.83;22.43;;;-5.50;97.30;;;;;;5020694;28;20428;-62
2023/02/10 07:55:36;;;;;;;50.88;24.52;;;-5.50;97.60;;;;;;5026592;28;20456;-61
2023/02/10 07:58:02;;;;;;;53.60;23.53;;;-5.40;98.10;;;;;;5028170;28;20188;-60
2023/02/10 08:00:28;;;;;;;60.10;24.13;;;-5.40;97.80;;;;;;5026710;28;20435;-60
2023/02/10 08:02:53;;;;;;;48.90;22.27;;;-5.40;97.90;;;;;;5032472;28;20267;-62
2023/02/10 08:05:19;;;;;;;53.07;21.33;;;-5.30;97.90;;;;;;5031718;28;20291;-60
2023/02/10 08:07:44;;;;;;;52.23;22.43;;;-5.30;97.50;;;;;;5036416;28;20176;-60
2023/02/10 08:10:10;;;;;;;45.73;20.83;;;-5.20;96.80;;;;;;5036046;28;20255;-60
2023/02/10 08:12:36;;;;;;;46.90;21.50;;;-5.20;97.00;;;;;;5019263;28;20191;-60
2023/02/10 08:15:01;;;;;;;46.00;20.40;;;-5.10;97.80;;;;;;5032994;28;20228;-59
2023/02/10 08:17:28;;;;;;;42.03;20.90;;;-5.10;98.20;;;;;;5027024;28;20256;-60
2023/02/10 08:19:53;;;;;;;49.63;20.83;;;-5.00;98.10;;;;;;5029239;28;20185;-60
2023/02/10 08:22:19;;;;;;;47.90;20.60;;;-4.90;99.10;;;;;;5024605;28;20436;-60
2023/02/10 08:24:45;;;;;;;49.10;22.00;;;-4.90;98.60;;;;;;5030641;28;20734;-60
2023/02/10 08:27:10;;;;;;;51.50;22.90;;;-4.80;98.70;;;;;;5021530;28;20202;-60
2023/02/10 08:29:36;;;;;;;48.77;22.90;;;-4.80;99.40;;;;;;5027093;28;20705;-60
2023/02/10 08:32:02;;;;;;;56.57;22.23;;;-4.70;99.80;;;;;;5024700;28;20188;-61
2023/02/10 08:34:27;;;;;;;49.43;22.53;;;-4.60;99.90;;;;;;5014328;28;20208;-60
2023/02/10 08:36:53;;;;;;;49.20;22.00;;;-4.50;99.90;;;;;;5022679;28;20223;-60
2023/02/10 08:39:18;;;;;;;49.13;21.00;;;-4.40;99.60;;;;;;5019693;28;20175;-60
2023/02/10 08:41:44;;;;;;;50.80;20.90;;;-4.30;99.90;;;;;;5016719;28;20728;-61
2023/02/10 08:44:12;;;;;;;49.50;21.07;;;-4.20;99.90;;;;;;5014759;28;20847;-60
2023/02/10 08:46:38;;;;;;;54.60;23.20;;;-4.20;99.90;;;;;;5026015;28;20173;-60
2023/02/10 08:49:03;;;;;;;55.70;22.03;;;-4.10;99.90;;;;;;5020667;28;20502;-62
2023/02/10 08:51:32;;;;;;;50.80;22.43;;;-4.00;99.90;;;;;;5021931;28;20212;-60
2023/02/10 08:54:01;;;;;;;46.17;20.50;;;-3.90;99.90;;;;;;5024906;28;20193;-61
2023/02/10 08:56:27;;;;;;;43.67;20.00;;;-3.80;98.80;;;;;;5026757;28;20492;-60
2023/02/10 08:58:52;;;;;;;44.23;21.23;;;-3.80;98.60;;;;;;5022893;28;20452;-60
2023/02/10 09:01:21;;;;;;;51.13;21.43;;;-3.70;98.70;;;;;;5021436;28;20447;-60
2023/02/10 09:03:47;;;;;;;49.73;23.23;;;-3.70;99.60;;;;;;5020887;28;20229;-61
2023/02/10 09:06:28;;;;;;;54.63;21.90;;;-3.60;99.80;;;;;;5034236;28;20432;-61
2023/02/10 09:08:54;;;;;;;53.40;22.13;;;-3.50;99.50;;;;;;5034409;28;20208;-60
2023/02/10 09:11:23;;;;;;;59.17;24.77;;;-3.40;98.70;;;;;;5019560;28;20472;-61
2023/02/10 09:13:49;;;;;;;57.87;24.20;;;-3.30;98.40;;;;;;5029540;28;20458;-60
2023/02/10 09:16:15;;;;;;;60.90;26.83;;;-3.20;99.10;;;;;;5025010;28;20433;-61
2023/02/10 09:18:41;;;;;;;51.90;24.47;;;-3.10;99.20;;;;;;5023692;28;21031;-60
2023/02/10 09:21:06;;;;;;;51.00;23.60;;;-3.00;99.20;;;;;;5025105;28;20673;-62
2023/02/10 09:23:32;;;;;;;52.80;25.17;;;-2.90;99.40;;;;;;5024176;28;20259;-61
2023/02/10 09:25:59;;;;;;;56.17;23.17;;;-2.70;99.10;;;;;;5020277;28;20173;-61
2023/02/10 09:28:26;;;;;;;60.87;24.97;;;-2.60;99.00;;;;;;5025769;28;20716;-62
2023/02/10 09:30:51;;;;;;;55.23;24.00;;;-2.50;98.70;;;;;;5022937;28;20463;-60
2023/02/10 09:33:17;;;;;;;52.17;23.17;;;-2.40;99.00;;;;;;5022137;28;20443;-64
2023/02/10 09:35:43;;;;;;;45.63;21.80;;;-2.30;98.30;;;;;;5024440;28;20208;-62
2023/02/10 09:38:11;;;;;;;46.40;22.13;;;-2.10;97.80;;;;;;5015075;28;22247;-61
2023/02/10 09:40:47;;;;;;;49.20;22.70;;;-2.00;97.30;;;;;;5016553;28;20855;-63
2023/02/10 09:43:25;;;;;;;53.30;23.33;;;-2.00;96.10;;;;;;5021982;28;20453;-62
2023/02/10 09:46:01;;;;;;;52.53;23.40;;;-1.80;97.50;;;;;;5024065;28;21097;-61
2023/02/10 09:48:44;;;;;;;53.23;24.60;;;-1.70;97.70;;;;;;5028810;28;20469;-61
2023/02/10 09:51:55;;;;;;;55.27;26.03;;;-1.50;97.20;;;;;;5024953;28;20454;-61
2023/02/10 09:54:20;;;;;;;51.00;24.57;;;-1.40;94.60;;;;;;5028594;28;20491;-61
2023/02/10 09:56:47;;;;;;;59.47;24.87;;;-1.30;95.30;;;;;;5017054;28;20478;-60
2023/02/10 09:59:21;;;;;;;60.87;24.43;;;-1.20;96.40;;;;;;5023112;28;20284;-61
2023/02/10 10:01:57;;;;;;;50.63;24.77;;;-1.10;96.40;;;;;;5016364;28;20471;-62
2023/02/10 10:04:24;;;;;;;51.43;25.10;;;-0.90;95.50;;;;;;5029867;28;20448;-61
2023/02/10 10:06:55;;;;;;;56.53;25.83;;;-0.80;95.20;;;;;;5017113;28;20437;-60
2023/02/10 10:09:47;;;;;;;49.87;24.77;;;-0.60;95.70;;;;;;5033663;28;20458;-62
2023/02/10 10:12:17;;;;;;;48.30;24.73;;;-0.40;95.00;;;;;;5007423;28;20954;-62
2023/02/10 10:14:44;;;;;;;51.03;24.30;;;-0.30;94.20;;;;;;5023581;28;20459;-62
2023/02/10 10:17:27;;;;;;;51.73;23.60;;;-0.10;92.70;;;;;;5027252;28;20425;-61
2023/02/10 10:20:01;;;;;;;47.67;23.13;;;0.00;91.10;;;;;;5026711;28;20447;-60
2023/02/10 10:22:51;;;;;;;55.13;24.97;;;0.10;89.60;;;;;;5024519;28;20437;-60
2023/02/10 10:25:22;;;;;;;50.37;24.13;;;0.20;90.40;;;;;;5028996;28;20475;-58
2023/02/10 10:28:09;;;;;;;50.80;23.77;;;0.40;90.50;;;;;;5026336;28;20440;-58
2023/02/10 10:30:50;;;;;;;53.83;23.33;;;0.50;91.20;;;;;;5029006;28;20452;-59
2023/02/10 10:33:33;;;;;;;51.70;25.80;;;0.70;91.30;;;;;;5026295;28;20436;-59
2023/02/10 10:36:01;;;;;;;56.90;24.40;;;0.90;89.90;;;;;;5018490;28;20444;-61
2023/02/10 10:38:32;;;;;;;49.53;24.43;;;1.10;88.50;;;;;;5026857;28;20424;-57
2023/02/10 10:41:13;;;;;;;51.13;24.83;;;1.40;87.30;;;;;;5020047;28;20432;-59
2023/02/10 10:43:53;;;;;;;56.07;23.23;;;1.60;85.30;;;;;;5023534;28;20446;-58
2023/02/10 10:46:30;;;;;;;43.63;23.07;;;1.80;83.40;;;;;;5027776;28;20438;-60
2023/02/10 10:48:56;;;;;;;47.90;24.43;;;2.00;81.30;;;;;;5020886;28;20440;-57
2023/02/10 10:51:23;;;;;;;53.77;25.03;;;2.20;80.10;;;;;;5019779;28;20968;-59
2023/02/10 10:53:53;;;;;;;48.10;25.00;;;2.30;76.80;;;;;;5018889;28;20456;-60
2023/02/10 10:56:36;;;;;;;49.10;23.70;;;2.50;75.10;;;;;;5026973;28;21092;-63
2023/02/10 10:59:25;;;;;;;47.23;22.10;;;2.60;71.20;;;;;;5022601;28;21127;-57
2023/02/10 11:01:52;;;;;;;75.03;25.03;;;2.80;70.90;;;;;;5012992;28;20445;-61
2023/02/10 11:04:25;;;;;;;51.37;25.20;;;2.90;70.30;;;;;;5019342;28;22158;-58
2023/02/10 11:06:54;;;;;;;43.40;21.73;;;3.10;70.20;;;;;;5016981;28;20975;-61
2023/02/10 11:09:22;;;;;;;43.57;20.10;;;3.30;69.60;;;;;;5025231;28;20512;-61
2023/02/10 11:11:49;;;;;;;37.17;18.20;;;3.50;65.40;;;;;;5025615;28;20833;-62
2023/02/10 11:14:18;;;;;;;54.33;17.90;;;3.60;62.50;;;;;;5024000;28;20457;-61
2023/02/10 11:16:47;;;;;;;30.87;15.27;;;3.80;61.80;;;;;;5027824;28;20442;-60
2023/02/10 11:19:26;;;;;;;27.30;14.67;;;4.00;59.80;;;;;;5023109;28;20487;-61
2023/02/10 11:21:53;;;;;;;26.33;14.47;;;4.10;57.00;;;;;;5016146;28;20436;-61
2023/02/10 11:24:28;;;;;;;37.00;16.70;;;4.20;56.80;;;;;;5015936;28;20512;-60
2023/02/10 11:26:58;;;;;;;36.40;16.70;;;4.40;57.00;;;;;;5017113;28;20430;-60
2023/02/10 11:29:26;;;;;;;29.07;15.13;;;4.60;56.50;;;;;;5015255;28;20435;-61
2023/02/10 11:31:53;;;;;;;30.63;16.27;;;4.80;55.90;;;;;;5017362;28;21024;-61
2023/02/10 11:34:29;;;;;;;31.50;16.53;;;5.00;55.20;;;;;;5021792;28;20476;-62
2023/02/10 11:36:57;;;;;;;35.13;15.60;;;5.10;55.60;;;;;;5022290;28;20526;-61
2023/02/10 11:39:36;;;;;;;31.40;15.50;;;5.30;54.90;;;;;;5021175;28;20439;-61
2023/02/10 11:42:21;;;;;;;29.97;16.00;;;5.50;52.80;;;;;;5018814;28;20419;-61
2023/02/10 11:44:53;;;;;;;26.57;13.27;;;5.60;51.20;;;;;;5020091;28;20458;-62
2023/02/10 11:47:19;;;;;;;27.60;14.50;;;5.60;50.50;;;;;;5015217;28;20438;-62
2023/02/10 11:49:47;;;;;;;26.77;14.10;;;5.70;51.10;;;;;;5016423;28;20481;-61
2023/02/10 11:52:13;;;;;;;31.77;15.13;;;5.80;49.60;;;;;;5019968;28;20188;-61
2023/02/10 11:54:39;;;;;;;27.10;14.80;;;6.00;50.20;;;;;;5018086;28;20454;-61
2023/02/10 12:00:48;;;;;;;26.50;13.50;;;6.40;50.50;;;;;;5001812;28;21076;-61
2023/02/10 12:03:29;;;;;;;33.60;15.63;;;6.80;49.20;;;;;;5013959;28;20477;-60
2023/02/10 12:06:06;;;;;;;23.23;12.70;;;7.00;47.10;;;;;;5020454;28;20819;-62
2023/02/10 12:08:54;;;;;;;17.80;10.47;;;7.30;44.80;;;;;;5020720;28;20938;-61
2023/02/10 12:11:37;;;;;;;18.03;8.67;;;7.60;44.00;;;;;;5012921;28;20947;-62
2023/02/10 12:14:36;;;;;;;14.47;8.80;;;8.10;41.90;;;;;;5012503;28;20454;-61
2023/02/10 12:17:31;;;;;;;22.13;11.80;;;8.60;39.30;;;;;;5018940;28;20427;-61
2023/02/10 12:20:21;;;;;;;23.07;12.07;;;9.20;39.20;;;;;;5022082;28;20610;-62
2023/02/10 12:22:55;;;;;;;23.50;12.00;;;9.60;39.60;;;;;;5015150;28;20472;-63
2023/02/10 12:25:34;;;;;;;23.20;13.60;;;9.70;37.80;;;;;;5022920;28;20481;-62
2023/02/10 12:28:12;;;;;;;20.33;12.43;;;9.70;37.60;;;;;;5019059;28;21422;-63
2023/02/10 12:30:55;;;;;;;20.83;11.40;;;9.70;38.50;;;;;;5028062;28;20465;-63
2023/02/10 12:33:48;;;;;;;23.27;12.57;;;10.00;38.60;;;;;;5021673;28;20423;-62
2023/02/10 12:36:35;;;;;;;21.83;12.13;;;10.40;37.90;;;;;;5026066;28;20427;-63
2023/02/10 12:39:21;;;;;;;18.83;12.20;;;10.90;38.20;;;;;;5013001;28;20431;-54
2023/02/10 12:41:59;;;;;;;26.17;15.00;;;11.40;37.40;;;;;;5020003;28;20505;-55
2023/02/10 12:44:25;;;;;;;19.70;12.37;;;11.80;36.10;;;;;;5020928;28;20481;-61